Timeline UpdatesTrip UpdatesNews PostsPvt PostsTravel TipsAdmin PostsConv PostsFollowed PostsChat RequestsBlog PostsPNR Posts

Disclaimer
Search
 
 
Mon Sep 1, 2014 16:52:57 ISTHomeTrainsΣChainsAtlasPNRForumGalleryNewsFAQTripsMembersLoginFeedback
No Recent News for this Train
Other Trains in the News **new
Latest...
...
Sun Jun 15, 2014 (01:39PM)
⇐ Return Journey: n/a

77620/Kacheguda Jalna Empty Rake

TRAIN IS CANCELLED
Change Departure Station:
Change Arrival Station:
Post a Train Travel TipPost a Train Travel Tip **new
Post a Comment/Question/Picture/VideoPost a Comment/Question/Picture/Video
Pantry/Catering
???
RSA - Rake Sharing
Rake/Coach Composition
8 coach DEMU.
Loco
News    PNR    Forum    Time-Table    Availability    Fare Chart    Map    Arr/Dep History    Trips    Gallery    ΣChains    X/O    Timeline    
Travel Time: 13h 18m    1 halts    Distance: 433 km    Avg Speed: 32 km/hr
Type: DEMU
Zone: SCR/South Central
Departs @ 00:27
Platform# ???
SMTWTFS
Bolarum Bazar/BOZ 
Arrives @ 13:45
Platform# ???
SMTWTFS
Jalna/J 

1 halts. 61 intermediate Stations between Bolarum Bazar and Jalna

Hide intermediate Stations  Show Old Time-Table

#CodeStation NameX/OArrivesAvgDepartsAvgHaltPFDay#KmSpeedElevZoneAddress
1KCGHyderabad Kacheguda (5)  -23:55---1-17.433494mSCRHyderabad - 500027, Telangana
1.1VARVidya Nagar (2)  23:59-23:59-  1-15.4 33505mSCRHyderabad, Telangana
1.2JOOJamai Osmania (2)  00:01-00:01-  2-14.0 33515mSCRHyderabad, Telangana
1.3ATCArts College (2)  00:02-00:02-  2-13.4 33521mSCRHyderabad, Telangana
1.4STPDSitafalmandi (4)  00:04-00:04-  2-12.3 33533mSCRSecunderabad, Telangana
1.5STDBSitafalmandi B Cabin  00:05-00:05-  2-12.2 33532mSCRSecunderabad, Telangana
1.6LGDHLalaguda Gate (2)  00:09-00:09-  2-9.6 33543mSCRSecunderabad, Telangana
1.7MJFMalkajgiri (3)  00:11-00:11-  2-8.5 33535mSCRSecunderabad, Telangana
1.8DYEDayanand Nagar (2)  00:13-00:13-  2-7.6 33537mSCRSecunderabad, Telangana
1.9SFXSafilguda (2)  00:14-00:14-  2-7.0 33544mSCRSecunderabad, Telangana
1.10RKORamakistapuram Gate (2)  00:17-00:17-  2-5.3 33561mSCRSecunderabad, Telangana
1.11AMQAmmuguda Halt (2)  00:19-00:19-  2-4.2 33569mSCRSecunderabad, Telangana
1.12CVBCavalry Barracks (3)  00:22-00:22-  2-2.8 33575mSCRSecunderabad, Telangana
1.13ALWAlwal (2)  00:24-00:24-  2-1.6 33580mSCRSecunderabad, Telangana
1.14BOZBolarum Bazar (2)  00:27-00:27-  20.0 33584mSCRSecunderabad, Telangana
1.15BMOBolarum (3)  00:30-00:30-  21.7 33597mSCRSecunderabad, Telangana
1.16GOPLGundlapochampalli  00:40-00:40-  26.9 33601mSCRRangareddy Dist., Telangana
1.17GDPLGundla Pochampally (1)  00:40-00:40-  27.0 33601mSCRRangareddy Dist., Telangana
1.18GWVGowdavalli (1)  00:49-00:49-  212.1 33601mSCRRangareddy Dist., Telangana
1.19MEDMedchal (3)  00:56-00:56-  215.6 33602mSCRRangareddy Dist., Telangana
1.20DBVDabilpur (1)  01:03-01:03-  219.5 33611mSCRRangareddy Dist., Telangana
1.21KUCHKuchavaram Halt (1)  01:15-01:15-  226.1 33595mSCRRangareddy, Telangana
1.22MOBManoharabad (2)  01:20-01:20-  228.8 33593mSCRMedak Dist., Telangana
1.23PAPMPalata Potaram (1)  01:43-01:43-  241.4 33522mSCRMedak Dist., Telangana
1.24BMPLBrahmanapalli (1)  01:46-01:46-  243.1 33528mSCRMedak Dist., Telangana
1.25MEMasaipet (2)  01:52-01:52-  245.9 33520mSCRMedak Dist., Telangana
1.26SHANSrinivasa Nagar  01:57-01:57-  249.0 33522mSCRMedak Dist., Telangana
1.27WDRWadiaram (2)  02:06-02:06-  253.8 33547mSCRMedak Dist., Telangana
1.28MZLMirzapalli (1)  02:18-02:18-  260.3 33530mSCRMedak Dist., Telangana
1.29SNPHShankapur Halt  02:29-02:29-  266.0 33547mSCRNizamabad Dist., Telangana
1.30AKEAkanapet (1)  02:38-02:38-  271.1 33566mSCRMedak District., Telangana
1.31BKUBhiknur  02:49-02:49-  277.2 33575mSCRNizamabad Dist., Telangana
1.32THPRTippapur (1)  02:57-02:57-  281.3 33549mSCRNizamabad Dist., Telangana
1.33TMDTalmadla  03:07-03:07-  286.8 33559mSCRNizamabad Dist., Telangana
1.34KMCKamareddi (3)  03:26-03:26-  296.8 33528mSCRNizamabad Dist., Telangana
1.35UPWUppalavai  03:46-03:46-  2108.1 33529mSCRNizamabad Dist., Telangana
1.36SCPSirnapalli  04:06-04:06-  2118.5 33456mSCRNizamabad Dist., Telangana
1.37IDLIndalvai (1)  04:20-04:20-  2126.4 33439mSCRNizamabad Dist., Telangana
1.38DHPDichpalli  04:38-04:38-  2135.8 33424mSCRNizamabad Dist., Telangana
1.39NZBNizamabad (3)  05:01-05:01-  2148.7 33384mSCRNizamabad, Telangana
1.40JKMJankampet Junction (1)  05:13-05:13-  2154.9 33391mSCRJankampet Junction nizamabad dist., Telangana
1.41NVTNavipet (2)  05:30-05:30-  2164.3 33374mSCRNizamabad Dist., Telangana
1.42FKBFakrabad (1)  05:43-05:43-  2171.3 33348mSCRNizamabad Dist., Telangana
1.43BSXBasar (2)  05:55-05:55-  2178.1 33358mSCRDist Adilabad, Telangana
1.44DABDharmabad (2)  06:14-06:14-  2187.9 33354mSCRDegaon, Maharashtra
1.45SQESamarala Halt  06:26-06:26-  2194.4 33360mSCRDharmabad, Maharashtra
1.46CIKAChikna  06:34-06:34-  2199.1 33376mSCRSaikhed, Maharashtra
1.47KEKKarkheli  06:39-06:39-  2201.6 33358mSCRBiloli, Maharashtra
1.48BLSABolsa  06:52-06:52-  2208.9 33361mSCRDharmabad, Maharashtra
1.49UMRIUmri (1)  07:08-07:08-  2217.4 33381mSCRHuzur Sahib Nanded, Maharashtra
1.50SLGHShelgaon Halt  07:22-07:22-  2225.2 33378mSCRMudkhed, Maharashtra
1.51SVNSivungaon  07:31-07:31-  2229.6 33395mSCRHuzur Sahib Nanded, Maharashtra
1.52MUEMudkhed Junction (4)  07:44-07:44-  2236.8 33378mSCRMudkhed, Maharashtra
1.53MGCMugat  08:01-08:01-  2246.0 33360mSCRHuzur Sahib Nanded, Maharashtra
1.54PARDPathrad  08:07-08:07-  2249.3 33363mSCRHuzur Sahib Nanded, Maharashtra
1.55MTDIMaltekdi  08:20-08:20-  2256.4 33362mSCRNanded, Maharashtra
1.56NEDHazur Sahib Nanded (4)  08:25-08:25-  2259.2 33366mSCRNanded, Maharashtra
1.57WNGWanegaon  08:37-08:37-  2265.6 33371mSCRChudawa, Maharashtra
1.58LBGLimbgaon (2)  08:46-08:46-  2270.3 33390mSCRHuzur Sahib Nanded, Maharashtra
1.59CRUChudawa (1)  09:03-09:03-  2279.9 33392mSCRHingoli, Maharashtra
1.60PAUPurna Junction (4)  09:22-09:22-  2289.8 33384mSCRPurna, Maharashtra
1.61MQLMirkhal  09:44-09:44-  2301.9 33405mSCRPurna, Maharashtra
1.62PIZPingli (1)  09:54-09:54-  2307.3 33399mSCRParbhani, Maharashtra
1.63PBNParbhani Junction (3)  10:14-10:14-  2318.3 33414mSCRParbhani 431401, Maharashtra
1.64PGPergaon  10:36-10:36-  2330.4 33441mSCRParbhani, Maharashtra
1.65DAVDevalgaon Avchar  10:48-10:48-  2336.4 33425mSCRParbhani, Maharashtra
1.66MVOManwath Road (2)  11:05-11:05-  2345.6 33421mSCRParbhani, Maharashtra
1.67DGPPDhengli Pimpalgaon  11:15-11:15-  2351.1 33407mSCRSatuna, Maharashtra
1.68SELUSelu (2)  11:32-11:32-  2360.6 33436mSCRParbhani, Maharashtra
1.69SCOSatuna  11:51-11:51-  2370.9 33440mSCRSatona, Maharashtra
1.70UPRUsmanpur  12:06-12:06-  2378.8 33444mSCRUsmanpur, Maharashtra
1.71PTUPartur (2)  12:23-12:23-  2388.3 33465mSCRJalna, Maharashtra
1.72PDGParadgaon  12:36-12:36-  2395.5 33454mSCRUsmanpur, Maharashtra
1.73RNERanjani  12:48-12:48-  2401.7 33469mSCRJalna, Maharashtra
1.74KODIKodi  13:09-13:09-  2412.9 33473mSCRRanjani, Maharashtra
1.75SVDSarwari  13:27-13:27-  2422.9 33493mSCRRanjani, Maharashtra
2J•Jalna (3)•  13:45----2432.6-502mSCRJalna, Maharashtra
Scroll to Top
Scroll to Bottom